sensor_id;sensor_type;location;lat;lon;timestamp;noise_LAeq;noise_LA_min;noise_LA_max;noise_LA01;noise_LA95
68599;Laerm;18038;50.166;18.908;2023-03-01T00:01:01;48.50;47.04;55.00;;
68599;Laerm;18038;50.166;18.908;2023-03-01T00:04:10;48.26;47.03;50.32;;
68599;Laerm;18038;50.166;18.908;2023-03-01T00:07:17;48.17;46.87;50.26;;
68599;Laerm;18038;50.166;18.908;2023-03-01T00:10:23;48.61;47.02;56.46;;
68599;Laerm;18038;50.166;18.908;2023-03-01T00:13:30;48.16;46.94;51.00;;
68599;Laerm;18038;50.166;18.908;2023-03-01T00:16:39;48.11;47.01;50.24;;
68599;Laerm;18038;50.166;18.908;2023-03-01T00:19:49;48.08;46.90;50.11;;
68599;Laerm;18038;50.166;18.908;2023-03-01T00:22:55;48.30;46.78;52.17;;
68599;Laerm;18038;50.166;18.908;2023-03-01T00:26:06;48.56;46.63;57.50;;
68599;Laerm;18038;50.166;18.908;2023-03-01T00:29:15;48.04;46.71;49.34;;
68599;Laerm;18038;50.166;18.908;2023-03-01T00:32:21;48.15;46.90;51.14;;
68599;Laerm;18038;50.166;18.908;2023-03-01T00:35:32;48.19;46.96;53.62;;
68599;Laerm;18038;50.166;18.908;2023-03-01T00:38:41;48.20;46.80;50.26;;
68599;Laerm;18038;50.166;18.908;2023-03-01T00:41:47;49.09;46.99;60.10;;
68599;Laerm;18038;50.166;18.908;2023-03-01T00:44:54;48.10;46.73;50.31;;
68599;Laerm;18038;50.166;18.908;2023-03-01T00:48:00;48.54;46.85;57.81;;
68599;Laerm;18038;50.166;18.908;2023-03-01T00:51:13;48.07;46.81;49.47;;
68599;Laerm;18038;50.166;18.908;2023-03-01T00:54:19;48.11;46.62;50.55;;
68599;Laerm;18038;50.166;18.908;2023-03-01T00:57:26;48.17;46.88;50.57;;
68599;Laerm;18038;50.166;18.908;2023-03-01T01:04:16;48.10;46.86;50.04;;
68599;Laerm;18038;50.166;18.908;2023-03-01T01:07:25;48.09;46.83;49.45;;
68599;Laerm;18038;50.166;18.908;2023-03-01T01:10:33;48.48;46.91;55.95;;
68599;Laerm;18038;50.166;18.908;2023-03-01T01:13:41;48.10;46.85;52.20;;
68599;Laerm;18038;50.166;18.908;2023-03-01T01:16:48;48.18;46.89;54.47;;
68599;Laerm;18038;50.166;18.908;2023-03-01T01:19:54;48.93;47.02;59.13;;
68599;Laerm;18038;50.166;18.908;2023-03-01T01:23:05;48.17;46.88;49.94;;
68599;Laerm;18038;50.166;18.908;2023-03-01T01:26:16;48.82;47.01;57.39;;
68599;Laerm;18038;50.166;18.908;2023-03-01T01:29:25;48.42;46.82;56.61;;
68599;Laerm;18038;50.166;18.908;2023-03-01T01:32:31;48.12;46.92;49.49;;
68599;Laerm;18038;50.166;18.908;2023-03-01T01:35:38;48.15;46.99;49.52;;
68599;Laerm;18038;50.166;18.908;2023-03-01T01:38:46;48.38;46.89;51.92;;
68599;Laerm;18038;50.166;18.908;2023-03-01T01:41:53;48.54;46.85;56.61;;
68599;Laerm;18038;50.166;18.908;2023-03-01T01:45:32;48.77;46.82;54.98;;
68599;Laerm;18038;50.166;18.908;2023-03-01T01:48:45;48.12;46.76;50.19;;
68599;Laerm;18038;50.166;18.908;2023-03-01T01:52:02;48.65;47.01;58.11;;
68599;Laerm;18038;50.166;18.908;2023-03-01T01:55:20;48.31;46.85;54.04;;
68599;Laerm;18038;50.166;18.908;2023-03-01T01:58:30;48.37;46.74;56.68;;
68599;Laerm;18038;50.166;18.908;2023-03-01T02:01:37;48.88;46.83;58.92;;
68599;Laerm;18038;50.166;18.908;2023-03-01T02:04:43;48.06;46.83;49.48;;
68599;Laerm;18038;50.166;18.908;2023-03-01T02:07:52;48.45;46.86;64.70;;
68599;Laerm;18038;50.166;18.908;2023-03-01T02:11:02;48.58;46.74;56.21;;
68599;Laerm;18038;50.166;18.908;2023-03-01T02:14:10;48.88;46.88;57.24;;
68599;Laerm;18038;50.166;18.908;2023-03-01T02:17:20;48.46;46.86;56.64;;
68599;Laerm;18038;50.166;18.908;2023-03-01T02:20:40;48.24;46.82;63.08;;
68599;Laerm;18038;50.166;18.908;2023-03-01T02:23:51;48.22;46.89;52.74;;
68599;Laerm;18038;50.166;18.908;2023-03-01T02:27:02;48.27;46.90;51.74;;
68599;Laerm;18038;50.166;18.908;2023-03-01T02:30:12;48.04;46.65;49.37;;
68599;Laerm;18038;50.166;18.908;2023-03-01T02:33:20;49.13;46.79;58.38;;
68599;Laerm;18038;50.166;18.908;2023-03-01T02:36:30;48.72;46.79;57.60;;
68599;Laerm;18038;50.166;18.908;2023-03-01T02:39:45;48.12;46.92;49.46;;
68599;Laerm;18038;50.166;18.908;2023-03-01T02:42:58;48.26;47.09;49.88;;
68599;Laerm;18038;50.166;18.908;2023-03-01T02:46:16;48.35;46.95;56.48;;
68599;Laerm;18038;50.166;18.908;2023-03-01T02:49:27;48.46;46.78;56.86;;
68599;Laerm;18038;50.166;18.908;2023-03-01T02:52:45;49.35;46.90;60.76;;
68599;Laerm;18038;50.166;18.908;2023-03-01T02:55:54;48.25;46.97;51.64;;
68599;Laerm;18038;50.166;18.908;2023-03-01T02:59:02;50.49;46.98;64.53;;
68599;Laerm;18038;50.166;18.908;2023-03-01T03:02:22;48.40;46.88;55.78;;
68599;Laerm;18038;50.166;18.908;2023-03-01T03:05:53;48.43;46.74;54.33;;
68599;Laerm;18038;50.166;18.908;2023-03-01T03:09:00;48.65;46.76;56.94;;
68599;Laerm;18038;50.166;18.908;2023-03-01T03:12:07;48.34;47.04;52.54;;
68599;Laerm;18038;50.166;18.908;2023-03-01T03:15:13;48.18;46.93;49.90;;
68599;Laerm;18038;50.166;18.908;2023-03-01T03:18:24;48.83;46.93;59.58;;
68599;Laerm;18038;50.166;18.908;2023-03-01T03:21:32;49.65;47.08;59.46;;
68599;Laerm;18038;50.166;18.908;2023-03-01T03:24:38;49.40;46.90;62.99;;
68599;Laerm;18038;50.166;18.908;2023-03-01T03:27:48;48.81;46.91;57.16;;
68599;Laerm;18038;50.166;18.908;2023-03-01T03:31:01;48.64;46.88;56.72;;
68599;Laerm;18038;50.166;18.908;2023-03-01T03:34:10;48.50;47.02;53.03;;
68599;Laerm;18038;50.166;18.908;2023-03-01T03:37:21;49.00;46.78;59.28;;
68599;Laerm;18038;50.166;18.908;2023-03-01T03:40:43;49.24;46.98;60.16;;
68599;Laerm;18038;50.166;18.908;2023-03-01T03:43:50;48.89;46.81;57.94;;
68599;Laerm;18038;50.166;18.908;2023-03-01T03:46:56;48.55;46.99;54.15;;
68599;Laerm;18038;50.166;18.908;2023-03-01T03:50:09;49.59;47.13;58.22;;
68599;Laerm;18038;50.166;18.908;2023-03-01T03:53:16;50.16;47.25;60.65;;
68599;Laerm;18038;50.166;18.908;2023-03-01T03:56:23;49.36;47.15;57.84;;
68599;Laerm;18038;50.166;18.908;2023-03-01T03:59:30;49.21;47.23;56.88;;
68599;Laerm;18038;50.166;18.908;2023-03-01T04:02:43;49.41;47.02;59.06;;
68599;Laerm;18038;50.166;18.908;2023-03-01T04:05:52;52.74;47.19;67.59;;
68599;Laerm;18038;50.166;18.908;2023-03-01T04:08:59;50.15;47.17;58.61;;
68599;Laerm;18038;50.166;18.908;2023-03-01T04:12:08;49.47;47.14;55.89;;
68599;Laerm;18038;50.166;18.908;2023-03-01T04:15:14;50.10;47.27;57.62;;
68599;Laerm;18038;50.166;18.908;2023-03-01T04:18:23;51.12;47.21;62.93;;
68599;Laerm;18038;50.166;18.908;2023-03-01T04:21:32;50.78;47.57;60.95;;
68599;Laerm;18038;50.166;18.908;2023-03-01T04:24:39;51.32;47.50;60.81;;
68599;Laerm;18038;50.166;18.908;2023-03-01T04:27:45;50.71;47.54;60.10;;
68599;Laerm;18038;50.166;18.908;2023-03-01T04:30:53;51.22;47.47;62.20;;
68599;Laerm;18038;50.166;18.908;2023-03-01T04:34:00;52.73;48.05;59.81;;
68599;Laerm;18038;50.166;18.908;2023-03-01T04:37:09;51.27;47.71;60.38;;
68599;Laerm;18038;50.166;18.908;2023-03-01T04:40:16;51.76;47.95;60.26;;
68599;Laerm;18038;50.166;18.908;2023-03-01T04:43:24;51.53;47.97;58.46;;
68599;Laerm;18038;50.166;18.908;2023-03-01T04:46:31;51.60;47.81;60.42;;
68599;Laerm;18038;50.166;18.908;2023-03-01T04:49:37;50.73;47.79;57.49;;
68599;Laerm;18038;50.166;18.908;2023-03-01T04:52:48;50.66;47.62;57.60;;
68599;Laerm;18038;50.166;18.908;2023-03-01T04:55:54;52.07;47.57;62.17;;
68599;Laerm;18038;50.166;18.908;2023-03-01T04:59:02;51.79;47.62;61.44;;
68599;Laerm;18038;50.166;18.908;2023-03-01T05:02:10;52.19;47.70;62.71;;
68599;Laerm;18038;50.166;18.908;2023-03-01T05:05:17;52.29;47.63;62.78;;
68599;Laerm;18038;50.166;18.908;2023-03-01T05:08:26;51.81;47.63;63.61;;
68599;Laerm;18038;50.166;18.908;2023-03-01T05:11:32;52.85;47.81;60.65;;
68599;Laerm;18038;50.166;18.908;2023-03-01T05:14:38;53.46;48.96;60.27;;
68599;Laerm;18038;50.166;18.908;2023-03-01T05:17:45;51.73;47.85;58.96;;
68599;Laerm;18038;50.166;18.908;2023-03-01T05:20:51;52.48;48.00;63.85;;
68599;Laerm;18038;50.166;18.908;2023-03-01T05:24:03;52.05;47.81;59.09;;
68599;Laerm;18038;50.166;18.908;2023-03-01T05:27:14;53.00;48.17;61.08;;
68599;Laerm;18038;50.166;18.908;2023-03-01T05:30:21;54.82;48.62;66.91;;
68599;Laerm;18038;50.166;18.908;2023-03-01T05:33:27;52.87;48.73;61.47;;
68599;Laerm;18038;50.166;18.908;2023-03-01T05:36:34;53.30;48.50;64.16;;
68599;Laerm;18038;50.166;18.908;2023-03-01T05:39:43;53.00;48.17;65.79;;
68599;Laerm;18038;50.166;18.908;2023-03-01T05:42:57;54.14;48.58;63.13;;
68599;Laerm;18038;50.166;18.908;2023-03-01T05:46:04;53.97;48.15;70.48;;
68599;Laerm;18038;50.166;18.908;2023-03-01T05:49:11;53.02;48.63;59.05;;
68599;Laerm;18038;50.166;18.908;2023-03-01T05:52:18;52.70;48.28;59.95;;
68599;Laerm;18038;50.166;18.908;2023-03-01T05:55:29;53.06;48.18;61.10;;
68599;Laerm;18038;50.166;18.908;2023-03-01T05:58:38;54.29;48.37;65.80;;
68599;Laerm;18038;50.166;18.908;2023-03-01T06:01:45;53.71;48.41;61.04;;
68599;Laerm;18038;50.166;18.908;2023-03-01T06:04:51;53.67;48.27;67.62;;
68599;Laerm;18038;50.166;18.908;2023-03-01T06:07:59;53.10;48.19;60.49;;
68599;Laerm;18038;50.166;18.908;2023-03-01T06:11:09;54.72;48.25;68.04;;
68599;Laerm;18038;50.166;18.908;2023-03-01T06:14:15;53.08;48.37;65.80;;
68599;Laerm;18038;50.166;18.908;2023-03-01T06:17:21;52.72;47.79;61.54;;
68599;Laerm;18038;50.166;18.908;2023-03-01T06:20:29;53.34;48.06;61.06;;
68599;Laerm;18038;50.166;18.908;2023-03-01T06:23:36;55.85;48.09;67.93;;
68599;Laerm;18038;50.166;18.908;2023-03-01T06:26:45;52.77;48.08;60.46;;
68599;Laerm;18038;50.166;18.908;2023-03-01T06:29:51;53.95;48.01;64.40;;
68599;Laerm;18038;50.166;18.908;2023-03-01T06:32:58;52.47;47.94;60.25;;
68599;Laerm;18038;50.166;18.908;2023-03-01T06:36:07;52.96;48.45;61.65;;
68599;Laerm;18038;50.166;18.908;2023-03-01T06:39:14;53.43;47.50;64.18;;
68599;Laerm;18038;50.166;18.908;2023-03-01T06:42:23;54.96;48.27;62.51;;
68599;Laerm;18038;50.166;18.908;2023-03-01T06:45:29;55.15;49.64;60.43;;
68599;Laerm;18038;50.166;18.908;2023-03-01T06:48:36;53.16;48.02;59.44;;
68599;Laerm;18038;50.166;18.908;2023-03-01T06:51:42;54.05;47.74;63.63;;
68599;Laerm;18038;50.166;18.908;2023-03-01T06:54:49;53.76;47.15;60.51;;
68599;Laerm;18038;50.166;18.908;2023-03-01T06:58:01;54.80;47.76;65.57;;
68599;Laerm;18038;50.166;18.908;2023-03-01T07:01:08;54.20;48.14;62.41;;
68599;Laerm;18038;50.166;18.908;2023-03-01T07:04:15;53.69;47.39;64.15;;
68599;Laerm;18038;50.166;18.908;2023-03-01T07:07:21;53.97;47.31;62.61;;
68599;Laerm;18038;50.166;18.908;2023-03-01T07:10:28;53.51;47.57;60.67;;
68599;Laerm;18038;50.166;18.908;2023-03-01T07:13:37;54.62;47.56;64.35;;
68599;Laerm;18038;50.166;18.908;2023-03-01T07:16:44;54.57;47.75;63.99;;
68599;Laerm;18038;50.166;18.908;2023-03-01T07:19:50;53.64;47.48;62.51;;
68599;Laerm;18038;50.166;18.908;2023-03-01T07:22:56;54.25;47.41;65.73;;
68599;Laerm;18038;50.166;18.908;2023-03-01T07:26:03;54.32;47.56;62.32;;
68599;Laerm;18038;50.166;18.908;2023-03-01T07:29:13;53.82;47.22;60.50;;
68599;Laerm;18038;50.166;18.908;2023-03-01T07:32:19;52.96;47.42;60.89;;
68599;Laerm;18038;50.166;18.908;2023-03-01T07:35:27;52.94;46.98;60.81;;
68599;Laerm;18038;50.166;18.908;2023-03-01T07:38:33;52.91;46.82;64.69;;
68599;Laerm;18038;50.166;18.908;2023-03-01T07:41:40;62.93;47.29;71.43;;
68599;Laerm;18038;50.166;18.908;2023-03-01T07:44:49;62.89;46.92;73.30;;
68599;Laerm;18038;50.166;18.908;2023-03-01T07:47:56;53.74;46.76;64.03;;
68599;Laerm;18038;50.166;18.908;2023-03-01T07:51:05;54.76;47.78;66.78;;
68599;Laerm;18038;50.166;18.908;2023-03-01T07:54:12;54.19;46.86;78.01;;
68599;Laerm;18038;50.166;18.908;2023-03-01T07:57:18;54.45;47.24;72.76;;
68599;Laerm;18038;50.166;18.908;2023-03-01T08:00:27;52.40;46.62;60.07;;
68599;Laerm;18038;50.166;18.908;2023-03-01T08:03:46;53.05;47.52;63.71;;
68599;Laerm;18038;50.166;18.908;2023-03-01T08:06:54;52.88;47.49;60.23;;
68599;Laerm;18038;50.166;18.908;2023-03-01T08:10:00;52.66;47.41;61.89;;
68599;Laerm;18038;50.166;18.908;2023-03-01T08:13:06;52.69;46.56;64.31;;
68599;Laerm;18038;50.166;18.908;2023-03-01T08:16:16;52.19;46.50;65.27;;
68599;Laerm;18038;50.166;18.908;2023-03-01T08:19:23;51.85;46.65;62.60;;
68599;Laerm;18038;50.166;18.908;2023-03-01T08:22:30;55.32;46.82;77.24;;
68599;Laerm;18038;50.166;18.908;2023-03-01T08:25:38;52.02;46.58;59.88;;
68599;Laerm;18038;50.166;18.908;2023-03-01T08:28:45;53.00;47.95;60.62;;
68599;Laerm;18038;50.166;18.908;2023-03-01T08:31:54;54.22;47.16;63.01;;
68599;Laerm;18038;50.166;18.908;2023-03-01T08:35:00;52.13;46.89;63.76;;
68599;Laerm;18038;50.166;18.908;2023-03-01T08:38:07;53.65;47.81;64.07;;
68599;Laerm;18038;50.166;18.908;2023-03-01T08:41:13;53.69;46.87;64.02;;
68599;Laerm;18038;50.166;18.908;2023-03-01T08:44:20;52.88;47.23;65.38;;
68599;Laerm;18038;50.166;18.908;2023-03-01T08:47:30;52.80;46.88;63.33;;
68599;Laerm;18038;50.166;18.908;2023-03-01T08:50:37;56.90;46.87;72.09;;
68599;Laerm;18038;50.166;18.908;2023-03-01T08:53:45;54.05;47.06;67.99;;
68599;Laerm;18038;50.166;18.908;2023-03-01T08:56:52;54.29;46.81;68.15;;
68599;Laerm;18038;50.166;18.908;2023-03-01T08:59:59;52.41;46.77;70.51;;
68599;Laerm;18038;50.166;18.908;2023-03-01T09:03:09;51.96;46.75;68.63;;
68599;Laerm;18038;50.166;18.908;2023-03-01T09:06:16;52.90;46.98;67.44;;
68599;Laerm;18038;50.166;18.908;2023-03-01T09:09:23;51.68;46.72;65.76;;
68599;Laerm;18038;50.166;18.908;2023-03-01T09:12:28;53.10;46.69;67.31;;
68599;Laerm;18038;50.166;18.908;2023-03-01T09:15:37;52.49;46.63;64.96;;
68599;Laerm;18038;50.166;18.908;2023-03-01T09:18:50;51.79;46.59;67.89;;
68599;Laerm;18038;50.166;18.908;2023-03-01T09:21:57;51.46;46.95;59.49;;
68599;Laerm;18038;50.166;18.908;2023-03-01T09:25:05;52.05;46.68;60.41;;
68599;Laerm;18038;50.166;18.908;2023-03-01T09:28:12;51.75;46.39;65.73;;
68599;Laerm;18038;50.166;18.908;2023-03-01T09:31:31;52.12;46.68;64.81;;
68599;Laerm;18038;50.166;18.908;2023-03-01T09:34:41;57.96;47.16;74.85;;
68599;Laerm;18038;50.166;18.908;2023-03-01T09:37:59;51.26;46.55;60.78;;
68599;Laerm;18038;50.166;18.908;2023-03-01T09:41:35;50.86;46.47;59.37;;
68599;Laerm;18038;50.166;18.908;2023-03-01T09:44:51;51.25;46.78;59.81;;
68599;Laerm;18038;50.166;18.908;2023-03-01T09:48:04;52.10;46.74;61.05;;
68599;Laerm;18038;50.166;18.908;2023-03-01T09:51:25;52.82;47.18;71.94;;
68599;Laerm;18038;50.166;18.908;2023-03-01T09:54:33;52.55;46.63;62.08;;
68599;Laerm;18038;50.166;18.908;2023-03-01T09:57:49;51.47;46.66;61.84;;
68599;Laerm;18038;50.166;18.908;2023-03-01T10:01:04;50.46;46.52;57.86;;
68599;Laerm;18038;50.166;18.908;2023-03-01T10:04:45;52.00;46.34;61.79;;
68599;Laerm;18038;50.166;18.908;2023-03-01T10:08:26;51.95;46.56;67.15;;
68599;Laerm;18038;50.166;18.908;2023-03-01T10:11:39;51.70;46.39;61.53;;
68599;Laerm;18038;50.166;18.908;2023-03-01T10:14:59;52.37;46.60;62.43;;
68599;Laerm;18038;50.166;18.908;2023-03-01T10:18:17;52.61;46.93;62.84;;
68599;Laerm;18038;50.166;18.908;2023-03-01T10:21:29;52.55;46.88;63.23;;
68599;Laerm;18038;50.166;18.908;2023-03-01T10:24:38;50.79;46.42;59.32;;
68599;Laerm;18038;50.166;18.908;2023-03-01T10:27:53;52.19;46.60;66.98;;
68599;Laerm;18038;50.166;18.908;2023-03-01T10:31:00;52.25;46.56;60.88;;
68599;Laerm;18038;50.166;18.908;2023-03-01T10:34:17;52.97;46.75;63.14;;
68599;Laerm;18038;50.166;18.908;2023-03-01T10:37:25;50.90;46.21;58.74;;
68599;Laerm;18038;50.166;18.908;2023-03-01T10:40:50;50.99;46.46;61.08;;
68599;Laerm;18038;50.166;18.908;2023-03-01T10:43:58;51.58;46.72;58.52;;
68599;Laerm;18038;50.166;18.908;2023-03-01T10:47:19;52.12;46.57;63.91;;
68599;Laerm;18038;50.166;18.908;2023-03-01T10:50:29;51.58;46.74;59.19;;
68599;Laerm;18038;50.166;18.908;2023-03-01T10:53:41;51.50;46.89;58.58;;
68599;Laerm;18038;50.166;18.908;2023-03-01T10:56:54;52.38;46.66;62.64;;
68599;Laerm;18038;50.166;18.908;2023-03-01T11:00:20;51.41;46.80;60.87;;
68599;Laerm;18038;50.166;18.908;2023-03-01T11:03:29;54.61;47.44;61.38;;
68599;Laerm;18038;50.166;18.908;2023-03-01T11:06:39;53.36;46.91;62.39;;
68599;Laerm;18038;50.166;18.908;2023-03-01T11:09:45;53.11;46.70;61.19;;
68599;Laerm;18038;50.166;18.908;2023-03-01T11:13:08;52.53;46.73;62.25;;
68599;Laerm;18038;50.166;18.908;2023-03-01T11:16:31;53.30;46.75;60.78;;
68599;Laerm;18038;50.166;18.908;2023-03-01T11:19:39;51.35;46.56;62.45;;
68599;Laerm;18038;50.166;18.908;2023-03-01T11:23:10;51.37;46.41;68.00;;
68599;Laerm;18038;50.166;18.908;2023-03-01T11:26:19;51.56;46.90;60.95;;
68599;Laerm;18038;50.166;18.908;2023-03-01T11:29:39;52.35;46.52;64.28;;
68599;Laerm;18038;50.166;18.908;2023-03-01T11:33:08;51.41;46.91;60.26;;
68599;Laerm;18038;50.166;18.908;2023-03-01T11:36:31;52.20;46.23;63.15;;
68599;Laerm;18038;50.166;18.908;2023-03-01T11:39:49;51.60;46.89;65.27;;
68599;Laerm;18038;50.166;18.908;2023-03-01T11:43:14;51.76;46.65;59.89;;
68599;Laerm;18038;50.166;18.908;2023-03-01T11:46:57;53.02;46.81;63.36;;
68599;Laerm;18038;50.166;18.908;2023-03-01T11:50:20;52.07;47.34;58.63;;
68599;Laerm;18038;50.166;18.908;2023-03-01T11:53:59;52.01;47.00;58.46;;
68599;Laerm;18038;50.166;18.908;2023-03-01T11:57:23;52.71;46.92;60.52;;
68599;Laerm;18038;50.166;18.908;2023-03-01T12:01:12;52.17;46.38;62.21;;
68599;Laerm;18038;50.166;18.908;2023-03-01T12:04:54;53.12;46.44;65.75;;
68599;Laerm;18038;50.166;18.908;2023-03-01T12:08:16;52.66;46.62;64.23;;
68599;Laerm;18038;50.166;18.908;2023-03-01T12:11:45;51.70;46.59;60.02;;
68599;Laerm;18038;50.166;18.908;2023-03-01T12:15:26;56.17;46.49;74.05;;
68599;Laerm;18038;50.166;18.908;2023-03-01T12:19:05;52.12;46.63;63.88;;
68599;Laerm;18038;50.166;18.908;2023-03-01T12:22:30;53.76;46.95;69.62;;
68599;Laerm;18038;50.166;18.908;2023-03-01T12:25:42;52.71;46.41;69.11;;
68599;Laerm;18038;50.166;18.908;2023-03-01T12:29:15;52.22;46.25;63.47;;
68599;Laerm;18038;50.166;18.908;2023-03-01T12:32:52;51.74;46.44;60.53;;
68599;Laerm;18038;50.166;18.908;2023-03-01T12:36:35;52.96;46.41;67.95;;
68599;Laerm;18038;50.166;18.908;2023-03-01T12:40:03;52.60;46.98;63.46;;
68599;Laerm;18038;50.166;18.908;2023-03-01T12:43:39;52.81;46.48;64.64;;
68599;Laerm;18038;50.166;18.908;2023-03-01T12:47:07;51.98;46.51;61.72;;
68599;Laerm;18038;50.166;18.908;2023-03-01T12:50:22;52.51;46.68;63.62;;
68599;Laerm;18038;50.166;18.908;2023-03-01T12:53:36;52.06;46.17;60.14;;
68599;Laerm;18038;50.166;18.908;2023-03-01T12:56:48;52.65;46.96;68.32;;
68599;Laerm;18038;50.166;18.908;2023-03-01T13:00:18;52.58;46.44;67.37;;
68599;Laerm;18038;50.166;18.908;2023-03-01T13:04:00;51.05;46.37;60.01;;
68599;Laerm;18038;50.166;18.908;2023-03-01T13:07:27;52.63;46.65;70.02;;
68599;Laerm;18038;50.166;18.908;2023-03-01T13:10:48;54.51;46.56;67.45;;
68599;Laerm;18038;50.166;18.908;2023-03-01T13:14:45;52.07;46.24;64.30;;
68599;Laerm;18038;50.166;18.908;2023-03-01T13:17:55;53.58;46.82;61.29;;
68599;Laerm;18038;50.166;18.908;2023-03-01T13:21:04;52.34;46.25;61.30;;
68599;Laerm;18038;50.166;18.908;2023-03-01T13:24:26;53.08;46.02;69.69;;
68599;Laerm;18038;50.166;18.908;2023-03-01T13:27:33;55.39;46.69;72.81;;
68599;Laerm;18038;50.166;18.908;2023-03-01T13:30:45;52.53;46.94;60.57;;
68599;Laerm;18038;50.166;18.908;2023-03-01T13:33:52;53.23;47.63;59.90;;
68599;Laerm;18038;50.166;18.908;2023-03-01T13:37:10;52.82;46.77;61.41;;
68599;Laerm;18038;50.166;18.908;2023-03-01T13:40:58;52.77;46.85;68.15;;
68599;Laerm;18038;50.166;18.908;2023-03-01T13:44:20;55.25;46.56;78.40;;
68599;Laerm;18038;50.166;18.908;2023-03-01T13:47:36;54.20;46.54;72.86;;
68599;Laerm;18038;50.166;18.908;2023-03-01T13:50:51;53.08;46.05;63.07;;
68599;Laerm;18038;50.166;18.908;2023-03-01T13:53:59;52.41;46.62;62.64;;
68599;Laerm;18038;50.166;18.908;2023-03-01T13:57:24;51.93;46.58;60.17;;
68599;Laerm;18038;50.166;18.908;2023-03-01T14:00:36;52.76;46.17;62.42;;
68599;Laerm;18038;50.166;18.908;2023-03-01T14:03:46;52.30;45.95;62.46;;
68599;Laerm;18038;50.166;18.908;2023-03-01T14:07:10;52.23;46.95;62.44;;
68599;Laerm;18038;50.166;18.908;2023-03-01T14:10:17;52.66;46.82;66.13;;
68599;Laerm;18038;50.166;18.908;2023-03-01T14:13:45;54.01;47.54;63.67;;
68599;Laerm;18038;50.166;18.908;2023-03-01T14:17:15;52.26;46.42;60.60;;
68599;Laerm;18038;50.166;18.908;2023-03-01T14:20:30;52.51;45.89;63.53;;
68599;Laerm;18038;50.166;18.908;2023-03-01T14:23:41;51.80;45.78;60.32;;
68599;Laerm;18038;50.166;18.908;2023-03-01T14:26:50;53.32;46.88;60.49;;
68599;Laerm;18038;50.166;18.908;2023-03-01T14:30:00;53.21;46.18;68.04;;
68599;Laerm;18038;50.166;18.908;2023-03-01T14:33:20;52.06;46.94;57.94;;
68599;Laerm;18038;50.166;18.908;2023-03-01T14:36:33;53.11;46.59;65.25;;
68599;Laerm;18038;50.166;18.908;2023-03-01T14:39:39;52.84;46.33;62.83;;
68599;Laerm;18038;50.166;18.908;2023-03-01T14:42:46;52.04;46.62;58.61;;
68599;Laerm;18038;50.166;18.908;2023-03-01T14:45:52;52.34;46.16;59.90;;
68599;Laerm;18038;50.166;18.908;2023-03-01T14:49:05;51.90;46.30;61.16;;
68599;Laerm;18038;50.166;18.908;2023-03-01T14:52:27;51.86;46.36;60.44;;
68599;Laerm;18038;50.166;18.908;2023-03-01T14:55:43;52.06;46.98;60.80;;
68599;Laerm;18038;50.166;18.908;2023-03-01T14:58:53;51.87;46.16;62.96;;
68599;Laerm;18038;50.166;18.908;2023-03-01T15:02:11;52.36;46.91;65.36;;
68599;Laerm;18038;50.166;18.908;2023-03-01T15:05:28;53.43;47.03;59.18;;
68599;Laerm;18038;50.166;18.908;2023-03-01T15:08:46;54.53;46.13;70.66;;
68599;Laerm;18038;50.166;18.908;2023-03-01T15:11:53;51.90;46.20;59.48;;
68599;Laerm;18038;50.166;18.908;2023-03-01T15:15:00;52.47;46.28;61.25;;
68599;Laerm;18038;50.166;18.908;2023-03-01T15:18:17;53.09;47.04;62.17;;
68599;Laerm;18038;50.166;18.908;2023-03-01T15:21:29;52.28;46.25;70.24;;
68599;Laerm;18038;50.166;18.908;2023-03-01T15:24:39;52.74;46.65;66.48;;
68599;Laerm;18038;50.166;18.908;2023-03-01T15:27:47;55.27;46.27;78.27;;
68599;Laerm;18038;50.166;18.908;2023-03-01T15:31:00;52.74;46.23;61.23;;
68599;Laerm;18038;50.166;18.908;2023-03-01T15:34:23;52.17;46.74;62.64;;
68599;Laerm;18038;50.166;18.908;2023-03-01T15:37:44;52.95;45.92;66.44;;
68599;Laerm;18038;50.166;18.908;2023-03-01T15:40:58;52.13;46.42;63.24;;
68599;Laerm;18038;50.166;18.908;2023-03-01T15:44:26;52.56;46.47;67.89;;
68599;Laerm;18038;50.166;18.908;2023-03-01T15:47:49;53.27;45.99;68.73;;
68599;Laerm;18038;50.166;18.908;2023-03-01T15:50:59;51.51;46.07;59.38;;
68599;Laerm;18038;50.166;18.908;2023-03-01T15:54:18;53.15;46.66;67.17;;
68599;Laerm;18038;50.166;18.908;2023-03-01T15:57:29;51.42;46.19;59.33;;
68599;Laerm;18038;50.166;18.908;2023-03-01T16:00:39;51.91;46.41;69.63;;
68599;Laerm;18038;50.166;18.908;2023-03-01T16:04:01;51.92;45.83;59.15;;
68599;Laerm;18038;50.166;18.908;2023-03-01T16:07:09;52.24;46.01;64.00;;
68599;Laerm;18038;50.166;18.908;2023-03-01T16:10:16;53.18;46.50;60.57;;
68599;Laerm;18038;50.166;18.908;2023-03-01T16:13:26;54.61;46.85;63.74;;
68599;Laerm;18038;50.166;18.908;2023-03-01T16:16:32;54.67;46.40;68.85;;
68599;Laerm;18038;50.166;18.908;2023-03-01T16:19:39;51.77;46.34;60.39;;
68599;Laerm;18038;50.166;18.908;2023-03-01T16:22:45;51.58;45.89;58.46;;
68599;Laerm;18038;50.166;18.908;2023-03-01T16:25:53;51.51;45.70;58.98;;
68599;Laerm;18038;50.166;18.908;2023-03-01T16:29:01;52.27;46.24;60.05;;
68599;Laerm;18038;50.166;18.908;2023-03-01T16:32:08;51.53;46.15;59.64;;
68599;Laerm;18038;50.166;18.908;2023-03-01T16:35:17;51.26;46.09;59.26;;
68599;Laerm;18038;50.166;18.908;2023-03-01T16:38:25;51.14;46.31;62.49;;
68599;Laerm;18038;50.166;18.908;2023-03-01T16:41:31;51.83;46.59;63.47;;
68599;Laerm;18038;50.166;18.908;2023-03-01T16:44:43;53.63;47.60;65.50;;
68599;Laerm;18038;50.166;18.908;2023-03-01T16:47:49;51.56;46.18;65.52;;
68599;Laerm;18038;50.166;18.908;2023-03-01T16:51:00;53.66;46.44;69.30;;
68599;Laerm;18038;50.166;18.908;2023-03-01T16:54:06;57.66;46.65;70.54;;
68599;Laerm;18038;50.166;18.908;2023-03-01T16:57:13;55.71;46.35;79.50;;
68599;Laerm;18038;50.166;18.908;2023-03-01T17:00:23;54.51;46.38;72.78;;
68599;Laerm;18038;50.166;18.908;2023-03-01T17:03:29;53.30;46.85;70.52;;
68599;Laerm;18038;50.166;18.908;2023-03-01T17:06:35;51.19;46.32;57.59;;
68599;Laerm;18038;50.166;18.908;2023-03-01T17:09:42;50.33;46.57;58.82;;
68599;Laerm;18038;50.166;18.908;2023-03-01T17:12:49;51.48;46.30;59.19;;
68599;Laerm;18038;50.166;18.908;2023-03-01T17:15:58;50.43;46.56;61.12;;
68599;Laerm;18038;50.166;18.908;2023-03-01T17:19:04;52.06;46.29;64.19;;
68599;Laerm;18038;50.166;18.908;2023-03-01T17:22:12;51.22;46.25;59.06;;
68599;Laerm;18038;50.166;18.908;2023-03-01T17:25:19;51.20;46.27;59.32;;
68599;Laerm;18038;50.166;18.908;2023-03-01T17:28:32;51.39;46.42;59.13;;
68599;Laerm;18038;50.166;18.908;2023-03-01T17:31:41;51.04;46.31;61.06;;
68599;Laerm;18038;50.166;18.908;2023-03-01T17:34:48;51.15;46.18;59.78;;
68599;Laerm;18038;50.166;18.908;2023-03-01T17:37:54;51.41;46.37;60.48;;
68599;Laerm;18038;50.166;18.908;2023-03-01T17:41:01;50.19;45.86;59.84;;
68599;Laerm;18038;50.166;18.908;2023-03-01T17:44:07;51.28;46.18;59.93;;